X  Κλείσε Στοιχεία αεροπορικών μετεωρολογικών δεδομένων METAR     LGRX Patras Araxos Agamemnon Airport
Θερμοκρασία
11°C Θερμοκρασία
10°C Σημείο δρόσου
94% Υγρασία



Άνεμος
0 KM/H
0 MPH
0 M/S
0 KTS



Άπνοια
Β
Τρέχουσες Συνθήκες

Μερικώς Νεφελώδης Μερικώς Νεφελώδης
Πίεση 1006.77 (hPa) - 29.73 (inHg)
Ορατότητα 6 (μίλια) - 9.7 (km)
Aεροδρόμιο
Κωδικός Αεροδρομίου LGRX

Τοποθεσία: Patras Araxos Agamemnon Airport
Απόσταση: 108 (km)

Metar:
LGRX 242350Z 00000KT 9999 FEW090 11/10 Q1007 RMK SCT180 BLU

ώρα: 25-04-2024 02:50 EEST